Time;durP1;ratioP1;P1;durP2;ratioP2;P2;SDS_P1;SDS_P2;PMS_P1;PMS_P2;Temp;Humidity;BMP_temperature;BMP_pressure;BME280_temperature;BME280_humidity;BME280_pressure;Samples;Min_cycle;Max_cycle;Signal;HPM_P1;HPM_P2
2021/12/16 00:01:42;;;;;;;44.70;24.50;;;;;;;0.44;80.53;94219.22;5078657;28;20106;-39
2021/12/16 00:08:41;;;;;;;42.35;24.00;;;;;;;0.42;80.34;94224.34;5081234;28;20093;-39
2021/12/16 00:11:24;;;;;;;43.00;23.13;;;;;;;0.44;80.22;94219.97;5081863;28;20040;-39
2021/12/16 00:30:15;;;;;;;51.83;25.88;;;;;;;0.50;80.25;94220.06;5078363;28;20038;-40
2021/12/16 00:32:48;;;;;;;54.45;29.60;;;;;;;0.53;80.26;94227.28;5076795;28;20127;-41
2021/12/16 00:35:15;;;;;;;46.97;24.23;;;;;;;0.55;80.06;94227.59;5077950;28;20107;-41
2021/12/16 00:37:41;;;;;;;44.70;25.25;;;;;;;0.62;80.25;94224.50;5077859;28;20505;-41
2021/12/16 00:40:10;;;;;;;44.42;22.65;;;;;;;0.67;80.67;94230.03;5075878;28;20077;-41
2021/12/16 00:42:48;;;;;;;47.35;25.38;;;;;;;0.76;80.36;94232.69;5077843;28;20459;-41
2021/12/16 00:48:02;;;;;;;45.88;23.35;;;;;;;0.58;79.53;94222.00;5075274;28;20036;-40
2021/12/16 00:55:50;;;;;;;44.80;24.48;;;;;;;0.41;80.29;94236.47;5075850;28;20059;-41
2021/12/16 00:58:20;;;;;;;45.88;24.95;;;;;;;0.38;80.70;94223.78;5076226;28;20040;-41
2021/12/16 01:00:55;;;;;;;50.00;28.65;;;;;;;0.34;80.38;94223.22;5076007;28;20127;-41
2021/12/16 01:03:32;;;;;;;44.33;24.38;;;;;;;0.28;80.78;94225.09;5074730;28;20582;-41
2021/12/16 01:33:49;;;;;;;40.58;22.13;;;;;;;0.10;81.55;94217.06;5078641;28;20057;-42
2021/12/16 01:55:25;;;;;;;40.35;21.27;;;;;;;0.22;81.68;94192.38;5077492;28;20036;-41
2021/12/16 01:57:56;;;;;;;44.97;22.80;;;;;;;0.21;81.59;94198.28;5079364;28;20024;-41
2021/12/16 02:00:27;;;;;;;40.03;21.83;;;;;;;0.37;81.49;94195.88;5077954;28;20039;-41
2021/12/16 02:03:00;;;;;;;40.35;23.23;;;;;;;0.41;81.12;94193.00;5082820;28;20044;-41
2021/12/16 02:08:19;;;;;;;40.63;21.60;;;;;;;0.51;80.96;94194.41;5080298;28;20063;-40
2021/12/16 02:11:22;;;;;;;39.78;21.75;;;;;;;0.36;80.53;94186.25;5080602;28;20043;-40
2021/12/16 02:28:12;;;;;;;56.83;29.13;;;;;;;0.16;80.35;94188.03;5076948;28;20039;-40
2021/12/16 02:31:20;;;;;;;41.33;21.00;;;;;;;0.21;80.65;94185.44;5078357;28;20036;-40
2021/12/16 02:34:19;;;;;;;43.30;23.05;;;;;;;0.24;81.53;94189.94;5075322;28;20455;-40
2021/12/16 02:36:42;;;;;;;48.65;27.40;;;;;;;0.28;80.81;94185.06;5078417;28;20032;-40
2021/12/16 02:39:23;;;;;;;48.08;24.58;;;;;;;0.48;80.58;94200.75;5080438;28;20032;-40
2021/12/16 02:42:00;;;;;;;38.78;23.15;;;;;;;0.49;80.32;94199.56;5079859;28;20032;-41
2021/12/16 02:44:40;;;;;;;42.22;19.98;;;;;;;0.46;80.14;94200.47;5080663;28;20035;-41
2021/12/16 02:49:54;;;;;;;40.30;21.58;;;;;;;0.37;80.53;94190.44;5078798;28;20044;-41
2021/12/16 02:52:23;;;;;;;35.03;20.30;;;;;;;0.45;80.17;94193.56;5075310;28;20641;-41
2021/12/16 02:54:49;;;;;;;45.33;22.15;;;;;;;0.26;80.08;94181.34;5077030;28;20052;-41
2021/12/16 02:57:15;;;;;;;35.88;18.80;;;;;;;0.20;80.23;94180.47;5077913;28;20420;-41
2021/12/16 02:59:42;;;;;;;38.45;20.77;;;;;;;0.33;80.27;94203.47;5078113;28;20092;-41
2021/12/16 03:02:11;;;;;;;36.80;20.95;;;;;;;0.35;80.58;94192.88;5077562;28;20032;-41
2021/12/16 03:04:41;;;;;;;38.33;21.67;;;;;;;0.28;80.38;94189.78;5075277;28;20036;-41
2021/12/16 03:07:10;;;;;;;43.40;21.98;;;;;;;0.23;80.56;94204.00;5076950;28;20036;-41
2021/12/16 03:15:11;;;;;;;37.25;19.42;;;;;;;0.36;80.79;94194.38;5077876;28;20031;-39
2021/12/16 03:17:54;;;;;;;41.58;22.02;;;;;;;0.33;80.56;94189.13;5077655;28;20124;-41
2021/12/16 03:20:39;;;;;;;36.42;20.17;;;;;;;0.36;80.18;94190.91;5079047;28;20090;-40
2021/12/16 03:23:28;;;;;;;43.05;20.80;;;;;;;0.33;79.97;94197.25;5079295;28;20039;-40
2021/12/16 03:28:37;;;;;;;47.42;22.05;;;;;;;0.32;80.53;94184.91;5083097;28;20394;-40
2021/12/16 03:36:26;;;;;;;38.70;21.17;;;;;;;0.24;80.24;94189.22;5081479;28;20023;-40
2021/12/16 03:38:59;;;;;;;41.78;19.63;;;;;;;0.14;81.31;94182.34;5082793;28;20027;-40
2021/12/16 03:41:25;;;;;;;37.88;18.27;;;;;;;0.27;81.17;94190.97;5082483;28;20063;-40
2021/12/16 03:43:51;;;;;;;35.80;17.95;;;;;;;0.23;80.73;94188.44;5082848;28;20051;-40
2021/12/16 03:46:28;;;;;;;33.80;17.80;;;;;;;0.38;80.73;94191.19;5080249;28;20032;-40
2021/12/16 03:49:20;;;;;;;31.48;17.50;;;;;;;0.34;80.12;94193.34;5080622;28;20024;-40
2021/12/16 03:51:51;;;;;;;34.55;18.50;;;;;;;0.32;79.92;94190.34;5078147;28;20046;-39
2021/12/16 03:54:32;;;;;;;35.25;17.98;;;;;;;0.19;80.42;94187.13;5078394;28;20056;-40
2021/12/16 03:57:00;;;;;;;34.95;18.15;;;;;;;0.24;80.51;94189.94;5080628;28;20020;-39
2021/12/16 03:59:29;;;;;;;32.95;18.35;;;;;;;0.36;79.30;94186.25;5080576;28;20028;-38
2021/12/16 04:01:56;;;;;;;36.92;18.98;;;;;;;0.43;79.86;94190.56;5081952;28;20024;-38
2021/12/16 04:04:22;;;;;;;32.20;18.75;;;;;;;0.49;78.70;94188.69;5078778;28;20029;-39
2021/12/16 04:06:47;;;;;;;29.27;16.80;;;;;;;0.42;79.01;94191.75;5080003;28;20063;-38
2021/12/16 04:09:15;;;;;;;30.17;17.52;;;;;;;0.38;79.16;94181.09;5083008;28;20023;-39
2021/12/16 04:11:49;;;;;;;40.80;20.23;;;;;;;0.27;79.64;94177.41;5080008;28;20433;-39
2021/12/16 04:14:15;;;;;;;35.65;19.05;;;;;;;0.36;79.24;94178.09;5079820;28;20507;-39
2021/12/16 04:16:43;;;;;;;32.47;18.25;;;;;;;0.50;79.03;94190.19;5081465;28;20055;-39
2021/12/16 04:19:12;;;;;;;33.92;17.38;;;;;;;0.56;78.84;94193.78;5081271;28;20173;-40
2021/12/16 04:21:40;;;;;;;32.63;17.00;;;;;;;0.60;78.40;94194.34;5077476;28;20443;-40
2021/12/16 04:24:07;;;;;;;30.63;17.83;;;;;;;0.50;78.44;94188.22;5080121;28;20039;-40
2021/12/16 04:26:33;;;;;;;33.72;17.40;;;;;;;0.49;78.85;94184.03;5078473;28;20056;-40
2021/12/16 04:28:59;;;;;;;33.20;18.83;;;;;;;0.49;78.54;94172.41;5082901;28;20570;-40
2021/12/16 04:31:25;;;;;;;68.78;33.83;;;;;;;0.44;79.24;94189.34;5081735;28;20130;-40
2021/12/16 04:33:51;;;;;;;48.60;24.75;;;;;;;0.41;79.14;94185.56;5079009;28;20055;-40
2021/12/16 04:36:17;;;;;;;72.03;35.00;;;;;;;0.42;80.12;94181.66;5080597;28;20485;-40
2021/12/16 04:38:43;;;;;;;35.55;21.25;;;;;;;0.40;79.56;94177.91;5081427;28;20040;-40
2021/12/16 04:41:11;;;;;;;41.75;22.08;;;;;;;0.33;79.19;94181.72;5081458;28;20486;-40
2021/12/16 04:43:40;;;;;;;55.70;30.60;;;;;;;0.35;80.24;94178.53;5080636;28;20039;-40
2021/12/16 04:46:12;;;;;;;34.30;19.75;;;;;;;0.40;79.91;94177.91;5079709;28;20517;-38
2021/12/16 04:48:41;;;;;;;103.90;56.70;;;;;;;0.50;79.64;94173.88;5079739;28;20037;-40
2021/12/16 04:51:07;;;;;;;37.20;21.92;;;;;;;0.56;80.09;94174.75;5080039;28;20501;-40
2021/12/16 04:53:34;;;;;;;48.78;26.48;;;;;;;0.53;79.36;94187.31;5079492;28;20040;-40
2021/12/16 04:56:00;;;;;;;34.05;18.67;;;;;;;0.48;79.01;94173.59;5078568;28;20090;-40
2021/12/16 04:58:26;;;;;;;31.95;18.40;;;;;;;0.45;78.63;94166.41;5078884;28;20020;-40
2021/12/16 05:00:52;;;;;;;30.65;19.30;;;;;;;0.50;78.80;94173.88;5079296;28;20500;-40
2021/12/16 05:03:18;;;;;;;35.75;20.20;;;;;;;0.49;78.96;94172.41;5080177;28;20024;-40
2021/12/16 05:05:44;;;;;;;28.15;16.15;;;;;;;0.53;78.43;94178.41;5078621;28;20058;-39
2021/12/16 05:08:09;;;;;;;31.85;17.60;;;;;;;0.58;77.76;94172.31;5079747;28;20038;-39
2021/12/16 05:10:35;;;;;;;32.42;18.50;;;;;;;0.54;78.59;94179.91;5080728;28;20477;-39
2021/12/16 05:13:03;;;;;;;27.58;15.77;;;;;;;0.34;78.60;94172.38;5080537;28;20089;-40
2021/12/16 05:15:33;;;;;;;37.47;19.50;;;;;;;0.27;79.01;94175.44;5082810;28;20029;-40
2021/12/16 05:18:02;;;;;;;39.92;20.40;;;;;;;0.33;80.17;94167.38;5080828;28;20051;-40
2021/12/16 05:20:31;;;;;;;28.33;15.65;;;;;;;0.35;79.60;94167.69;5082426;28;20149;-40
2021/12/16 05:28:08;;;;;;;31.67;15.25;;;;;;;0.41;78.97;94173.97;5081510;28;20034;-39
2021/12/16 05:30:35;;;;;;;37.85;19.50;;;;;;;0.48;78.40;94170.88;5081400;28;20028;-39
2021/12/16 05:33:00;;;;;;;28.30;15.95;;;;;;;0.45;79.19;94169.88;5081614;28;20479;-40
2021/12/16 05:35:27;;;;;;;28.10;16.80;;;;;;;0.44;79.31;94167.59;5083231;28;20020;-39
2021/12/16 05:37:53;;;;;;;28.33;15.40;;;;;;;0.43;79.74;94171.56;5078078;28;20066;-39
2021/12/16 05:40:25;;;;;;;26.70;15.65;;;;;;;0.46;79.30;94167.88;5080568;28;20032;-39
2021/12/16 05:42:55;;;;;;;26.25;14.23;;;;;;;0.32;79.15;94163.19;5079251;28;20039;-39
2021/12/16 05:45:23;;;;;;;32.58;15.38;;;;;;;0.35;80.01;94173.88;5080932;28;20035;-40
2021/12/16 05:47:49;;;;;;;27.38;15.48;;;;;;;0.38;79.51;94170.22;5081074;28;20237;-40
2021/12/16 05:50:15;;;;;;;31.02;15.85;;;;;;;0.44;78.66;94173.78;5078997;28;20036;-40
2021/12/16 05:52:40;;;;;;;29.48;16.67;;;;;;;0.42;78.75;94173.50;5079234;28;20063;-39
2021/12/16 05:55:08;;;;;;;31.83;16.83;;;;;;;0.39;79.04;94169.00;5079051;28;20060;-39
2021/12/16 05:57:34;;;;;;;30.35;17.50;;;;;;;0.35;79.60;94163.00;5079520;28;20031;-39
2021/12/16 05:59:59;;;;;;;29.08;15.68;;;;;;;0.48;79.81;94176.31;5077562;28;20482;-39
2021/12/16 06:02:25;;;;;;;35.58;19.77;;;;;;;0.60;79.36;94178.78;5080477;28;20032;-39
2021/12/16 06:04:51;;;;;;;30.10;17.65;;;;;;;0.63;78.89;94177.84;5080124;28;20456;-39
2021/12/16 06:07:20;;;;;;;31.75;14.57;;;;;;;0.56;79.32;94178.19;5076623;28;20028;-39
2021/12/16 06:09:47;;;;;;;29.08;14.82;;;;;;;0.71;79.16;94180.97;5080136;28;20460;-40
2021/12/16 06:12:13;;;;;;;28.25;15.18;;;;;;;0.59;78.37;94171.84;5080310;28;20042;-39
2021/12/16 06:26:23;;;;;;;25.60;15.45;;;;;;;0.48;79.01;94187.19;5078675;28;20043;-40
2021/12/16 06:28:12;;;;;;;33.45;16.73;;;;;;;0.52;78.68;94185.06;5080545;28;20440;-40
2021/12/16 06:30:40;;;;;;;26.08;15.55;;;;;;;0.55;79.03;94184.13;5079207;28;20103;-40
2021/12/16 06:33:10;;;;;;;23.35;13.68;;;;;;;0.43;79.28;94185.88;5080452;28;20090;-39
2021/12/16 06:35:35;;;;;;;;;;;;;;;0.33;79.67;94187.16;5080122;28;20103;-40
2021/12/16 06:38:01;;;;;;;24.42;12.75;;;;;;;0.32;79.66;94174.81;5078539;28;20480;-39
2021/12/16 06:40:27;;;;;;;30.23;15.73;;;;;;;0.18;80.83;94174.75;5077270;28;20655;-39
2021/12/16 06:42:56;;;;;;;29.80;15.32;;;;;;;0.17;80.59;94184.13;5077424;28;20193;-39
2021/12/16 06:45:26;;;;;;;30.27;16.38;;;;;;;0.23;80.77;94176.84;5077443;28;20035;-40
2021/12/16 06:48:03;;;;;;;29.45;15.27;;;;;;;0.34;80.78;94190.63;5078030;28;20552;-40
2021/12/16 06:53:22;;;;;;;22.42;14.48;;;;;;;0.36;80.62;94177.34;5074221;28;21055;-40
2021/12/16 06:56:01;;;;;;;24.38;14.05;;;;;;;0.32;80.57;94191.09;5077797;28;20027;-40
2021/12/16 06:58:34;;;;;;;26.75;13.68;;;;;;;0.34;80.03;94185.97;5080246;28;20040;-39
2021/12/16 07:01:17;;;;;;;25.92;12.65;;;;;;;0.37;80.44;94192.44;5077771;28;20039;-39
2021/12/16 07:03:52;;;;;;;25.40;13.55;;;;;;;0.29;79.84;94189.31;5080830;28;20032;-39
2021/12/16 07:06:22;;;;;;;28.98;14.02;;;;;;;0.34;79.80;94187.91;5077311;28;20036;-39
2021/12/16 07:08:50;;;;;;;30.90;14.77;;;;;;;0.37;79.41;94189.72;5078204;28;20058;-39
2021/12/16 07:11:16;;;;;;;31.92;15.75;;;;;;;0.35;79.59;94202.97;5075488;28;20081;-39
2021/12/16 07:13:45;;;;;;;25.35;13.93;;;;;;;0.32;79.95;94201.97;5076716;28;20750;-39
2021/12/16 07:16:13;;;;;;;60.85;33.05;;;;;;;0.33;78.94;94191.84;5079016;28;20035;-39
2021/12/16 07:18:38;;;;;;;28.30;14.55;;;;;;;0.29;79.39;94191.25;5080174;28;20498;-39
2021/12/16 07:21:05;;;;;;;32.70;17.50;;;;;;;0.26;79.34;94194.94;5077324;28;20040;-40
2021/12/16 07:23:30;;;;;;;25.60;14.30;;;;;;;0.32;79.70;94196.53;5080376;28;20028;-39
2021/12/16 07:25:58;;;;;;;22.85;12.23;;;;;;;0.27;79.25;94191.75;5078108;28;20067;-39
2021/12/16 07:28:24;;;;;;;23.38;13.02;;;;;;;0.18;80.28;94191.81;5078417;28;20040;-39
2021/12/16 07:30:50;;;;;;;27.67;14.35;;;;;;;0.28;79.67;94195.22;5079698;28;20087;-39
2021/12/16 07:33:17;;;;;;;23.73;13.10;;;;;;;0.26;79.59;94192.94;5077439;28;20531;-39
2021/12/16 07:35:44;;;;;;;19.63;13.30;;;;;;;0.38;79.53;94202.06;5077415;28;20098;-40
2021/12/16 07:38:10;;;;;;;25.25;11.48;;;;;;;0.40;78.69;94205.81;5078184;28;20119;-40
2021/12/16 07:40:38;;;;;;;20.83;11.35;;;;;;;0.38;78.94;94202.81;5080284;28;20530;-39
2021/12/16 07:45:40;;;;;;;19.60;11.82;;;;;;;0.57;78.09;94195.25;5077376;28;20470;-39
2021/12/16 07:48:05;;;;;;;18.58;11.43;;;;;;;0.48;77.77;94203.47;5076226;28;20094;-39
2021/12/16 07:50:31;;;;;;;20.20;12.70;;;;;;;0.59;78.09;94204.44;5078347;28;20023;-39
2021/12/16 07:52:57;;;;;;;16.17;11.10;;;;;;;0.65;77.48;94207.28;5079208;28;20475;-39
2021/12/16 07:55:23;;;;;;;23.20;13.70;;;;;;;0.72;77.81;94199.50;5078114;28;20079;-39
2021/12/16 07:57:48;;;;;;;27.00;15.10;;;;;;;0.66;77.70;94195.19;5076268;28;20165;-39
2021/12/16 08:00:21;;;;;;;22.45;12.10;;;;;;;0.72;77.55;94199.50;5077955;28;20028;-39
2021/12/16 08:02:47;;;;;;;25.00;12.77;;;;;;;0.49;76.99;94165.00;5077373;28;20031;-40
2021/12/16 08:05:13;;;;;;;21.50;13.40;;;;;;;0.59;77.12;94192.81;5076880;28;20040;-39
2021/12/16 08:07:39;;;;;;;19.25;9.98;;;;;;;0.67;77.72;94200.16;5074497;28;20088;-38
2021/12/16 08:10:12;;;;;;;17.65;10.88;;;;;;;0.73;76.50;94195.59;5080174;28;20032;-39
2021/12/16 08:12:37;;;;;;;17.55;10.88;;;;;;;0.86;76.74;94202.69;5075998;28;20044;-40
2021/12/16 08:15:04;;;;;;;18.92;12.00;;;;;;;0.97;76.86;94197.47;5079392;28;20036;-39
2021/12/16 08:17:30;;;;;;;26.35;13.93;;;;;;;0.94;76.23;94201.88;5077185;28;20032;-40
2021/12/16 08:19:55;;;;;;;22.55;14.40;;;;;;;1.08;75.62;94187.53;5078760;28;20063;-40
2021/12/16 08:22:21;;;;;;;18.95;10.75;;;;;;;1.13;75.98;94194.25;5074361;28;20028;-40
2021/12/16 08:24:46;;;;;;;17.98;10.88;;;;;;;1.09;74.62;94186.28;5077347;28;20063;-40
2021/12/16 08:27:13;;;;;;;20.40;12.00;;;;;;;1.04;75.24;94197.81;5078384;28;20027;-40
2021/12/16 08:29:39;;;;;;;16.23;9.93;;;;;;;1.09;75.31;94186.28;5077527;28;20089;-40
2021/12/16 08:32:05;;;;;;;23.38;15.18;;;;;;;1.01;74.13;94190.63;5079339;28;20028;-40
2021/12/16 08:34:33;;;;;;;17.63;11.43;;;;;;;1.04;75.04;94189.66;5076916;28;20447;-39
2021/12/16 08:36:58;;;;;;;21.48;11.52;;;;;;;1.04;74.84;94195.09;5075120;28;20436;-39
2021/12/16 08:39:25;;;;;;;17.10;11.65;;;;;;;0.99;74.62;94195.78;5078424;28;20032;-40
2021/12/16 08:41:54;;;;;;;17.75;11.93;;;;;;;0.98;75.24;94199.69;5076877;28;20550;-40
2021/12/16 08:44:20;;;;;;;24.77;14.45;;;;;;;1.12;74.92;94195.50;5077425;28;20043;-41
2021/12/16 08:46:50;;;;;;;20.95;13.82;;;;;;;1.23;73.86;94201.88;5076309;28;20035;-39
2021/12/16 08:49:15;;;;;;;14.10;9.38;;;;;;;1.20;73.67;94202.81;5076179;28;20066;-40
2021/12/16 08:51:44;;;;;;;18.33;10.07;;;;;;;1.15;73.89;94203.44;5075707;28;20028;-39
2021/12/16 08:54:10;;;;;;;17.42;10.60;;;;;;;1.19;74.11;94198.56;5076787;28;20048;-41
2021/12/16 08:56:35;;;;;;;15.52;10.40;;;;;;;1.17;74.31;94203.72;5075245;28;20093;-40
2021/12/16 08:59:03;;;;;;;29.92;15.13;;;;;;;1.42;73.41;94191.53;5078270;28;20028;-39
2021/12/16 09:01:33;;;;;;;17.23;11.63;;;;;;;1.43;72.93;94198.44;5076642;28;20413;-40
2021/12/16 09:03:59;;;;;;;16.95;9.70;;;;;;;1.44;73.10;94192.56;5074870;28;20429;-39
2021/12/16 09:06:26;;;;;;;17.15;9.13;;;;;;;1.45;72.96;94185.88;5074559;28;20028;-39
2021/12/16 09:08:52;;;;;;;20.92;13.60;;;;;;;1.49;72.85;94189.16;5077111;28;20043;-40
2021/12/16 09:11:22;;;;;;;14.00;9.40;;;;;;;1.62;72.83;94186.13;5077581;28;20409;-39
2021/12/16 09:13:49;;;;;;;13.68;9.48;;;;;;;1.58;72.23;94185.59;5082385;28;20032;-39
2021/12/16 09:16:18;;;;;;;13.77;9.07;;;;;;;1.67;73.16;94184.72;5079844;28;20016;-39
2021/12/16 09:18:44;;;;;;;15.40;9.48;;;;;;;1.69;71.99;94188.44;5077925;28;20027;-39
2021/12/16 09:21:14;;;;;;;15.15;9.85;;;;;;;1.68;72.58;94178.78;5079042;28;20036;-39
2021/12/16 09:23:43;;;;;;;21.35;12.48;;;;;;;1.74;72.11;94168.72;5077482;28;20031;-41
2021/12/16 09:26:09;;;;;;;22.67;12.68;;;;;;;1.72;71.60;94173.91;5075696;28;20060;-41
2021/12/16 09:28:34;;;;;;;27.23;13.43;;;;;;;1.80;72.22;94166.09;5078156;28;20059;-39
2021/12/16 09:31:01;;;;;;;20.00;12.93;;;;;;;1.72;72.16;94163.00;5075266;28;20393;-39
2021/12/16 09:33:28;;;;;;;34.28;18.33;;;;;;;1.89;71.84;94165.94;5076429;28;20578;-38
2021/12/16 09:35:59;;;;;;;20.77;12.98;;;;;;;1.95;71.43;94166.78;5076982;28;20012;-39
2021/12/16 09:38:25;;;;;;;35.58;16.48;;;;;;;1.78;70.57;94161.09;5076403;28;20039;-38
2021/12/16 09:40:54;;;;;;;20.63;11.13;;;;;;;1.56;71.35;94165.50;5076422;28;20016;-42
2021/12/16 09:43:30;;;;;;;26.75;16.50;;;;;;;1.52;71.81;94162.97;5078359;28;20024;-39
2021/12/16 09:45:58;;;;;;;24.65;16.17;;;;;;;1.58;72.23;94169.25;5080228;28;20470;-44
2021/12/16 09:48:25;;;;;;;26.05;16.52;;;;;;;1.66;72.41;94158.72;5078712;28;20027;-43
2021/12/16 09:50:51;;;;;;;20.90;14.77;;;;;;;1.60;72.73;94161.38;5076060;28;20040;-44
2021/12/16 09:53:17;;;;;;;26.90;15.98;;;;;;;1.77;72.99;94151.47;5076377;28;20060;-40
2021/12/16 09:55:46;;;;;;;33.63;19.98;;;;;;;1.94;72.17;94157.13;5082182;28;20387;-39
2021/12/16 09:58:13;;;;;;;18.13;11.45;;;;;;;2.16;71.84;94154.66;5079851;28;20049;-41
2021/12/16 10:00:39;;;;;;;17.02;9.43;;;;;;;2.23;71.37;94159.72;5077819;28;20103;-40
2021/12/16 10:03:05;;;;;;;16.42;9.57;;;;;;;2.26;70.03;94153.28;5075535;28;20032;-45
2021/12/16 10:05:34;;;;;;;12.75;9.10;;;;;;;2.29;69.16;94141.44;5077302;28;20056;-44
2021/12/16 10:08:02;;;;;;;13.05;9.10;;;;;;;2.38;69.38;94143.28;5075825;28;20043;-45
2021/12/16 10:10:28;;;;;;;10.83;7.30;;;;;;;2.55;68.86;94141.47;5076575;28;20039;-45
2021/12/16 10:12:56;;;;;;;26.67;15.02;;;;;;;2.39;69.76;94140.06;5077645;28;20823;-45
2021/12/16 10:18:05;;;;;;;16.30;10.20;;;;;;;2.69;68.98;94135.16;5077795;28;20523;-43
2021/12/16 10:20:43;;;;;;;20.63;10.48;;;;;;;3.01;68.30;94131.28;5074447;28;20036;-46
2021/12/16 10:23:26;;;;;;;16.70;9.15;;;;;;;3.21;67.18;94122.22;5077252;28;20043;-47
2021/12/16 10:25:58;;;;;;;8.32;5.65;;;;;;;3.26;67.05;94121.53;5078216;28;20032;-44
2021/12/16 10:28:32;;;;;;;9.57;6.35;;;;;;;3.40;65.97;94120.66;5078756;28;20105;-47
2021/12/16 10:31:08;;;;;;;15.73;8.63;;;;;;;3.27;66.11;94120.31;5081443;28;20043;-47
2021/12/16 10:33:38;;;;;;;11.02;6.93;;;;;;;3.35;65.79;94111.19;5081041;28;20545;-45
2021/12/16 10:36:25;;;;;;;11.73;7.50;;;;;;;3.49;64.85;94114.97;5080768;28;20074;-46
2021/12/16 10:38:59;;;;;;;8.23;6.05;;;;;;;3.67;64.56;94104.44;5080853;28;20021;-44
2021/12/16 10:41:32;;;;;;;8.52;6.25;;;;;;;3.77;64.44;94100.25;5078134;28;20586;-44
2021/12/16 10:44:01;;;;;;;10.38;7.38;;;;;;;3.74;64.34;94090.34;5078573;28;20512;-45
2021/12/16 10:46:30;;;;;;;11.75;6.90;;;;;;;3.86;63.78;94088.38;5076749;28;20032;-43
2021/12/16 10:49:02;;;;;;;8.23;5.57;;;;;;;4.02;62.39;94079.53;5075961;28;20036;-41
2021/12/16 10:51:28;;;;;;;7.22;5.65;;;;;;;4.29;62.10;94084.31;5076598;28;20462;-41
2021/12/16 10:54:02;;;;;;;9.15;6.03;;;;;;;4.45;61.52;94074.69;5073601;28;20058;-42
2021/12/16 10:56:33;;;;;;;12.20;6.30;;;;;;;4.22;61.38;94071.13;5075726;28;20042;-41
2021/12/16 10:59:08;;;;;;;19.45;11.43;;;;;;;4.09;62.80;94070.09;5076749;28;20070;-42
2021/12/16 11:01:42;;;;;;;18.60;12.25;;;;;;;4.41;62.11;94074.94;5077870;28;20413;-43
2021/12/16 11:04:12;;;;;;;43.17;23.02;;;;;;;4.98;61.15;94074.47;5077105;28;20144;-44
2021/12/16 11:06:45;;;;;;;8.10;6.03;;;;;;;5.80;58.58;94064.69;5078346;28;20036;-41
2021/12/16 11:09:25;;;;;;;6.47;4.78;;;;;;;6.13;56.01;94072.06;5078621;28;20040;-43
2021/12/16 11:12:15;;;;;;;15.60;9.05;;;;;;;6.31;55.19;94071.47;5078101;28;20036;-41
2021/12/16 11:14:44;;;;;;;6.03;4.90;;;;;;;5.87;56.66;94072.41;5077230;28;20470;-41
2021/12/16 11:17:13;;;;;;;7.03;5.82;;;;;;;5.61;56.72;94074.69;5076125;28;20035;-41
2021/12/16 11:19:39;;;;;;;10.13;7.47;;;;;;;5.08;58.21;94080.47;5077642;28;20060;-43
2021/12/16 11:22:06;;;;;;;13.77;8.70;;;;;;;4.95;59.17;94080.97;5078072;28;20433;-44
2021/12/16 11:24:32;;;;;;;33.25;19.17;;;;;;;4.75;60.51;94074.97;5077091;28;20029;-45
2021/12/16 11:26:58;;;;;;;12.25;8.68;;;;;;;4.74;61.08;94079.72;5075386;28;20055;-43
2021/12/16 11:29:30;;;;;;;11.23;6.72;;;;;;;4.58;60.31;94074.94;5074127;28;20043;-44
2021/12/16 11:31:58;;;;;;;7.85;6.22;;;;;;;4.40;61.17;94075.41;5075193;28;20041;-45
2021/12/16 11:34:24;;;;;;;9.90;6.83;;;;;;;4.34;62.06;94071.91;5075904;28;20452;-46
2021/12/16 11:36:54;;;;;;;8.95;7.22;;;;;;;4.05;62.23;94064.88;5075850;28;20027;-45
2021/12/16 11:39:24;;;;;;;18.45;9.30;;;;;;;4.07;62.80;94067.84;5077399;28;20028;-45
2021/12/16 11:41:53;;;;;;;11.52;8.43;;;;;;;4.15;63.44;94065.41;5075886;28;20039;-45
2021/12/16 11:44:25;;;;;;;9.77;6.05;;;;;;;4.00;64.33;94065.59;5076395;28;20090;-49
2021/12/16 11:47:07;;;;;;;7.47;5.63;;;;;;;3.89;62.85;94064.81;5079141;28;20047;-48
2021/12/16 11:49:38;;;;;;;12.82;7.90;;;;;;;3.96;63.94;94062.38;5078972;28;20061;-45
2021/12/16 11:52:24;;;;;;;13.98;9.15;;;;;;;4.09;63.62;94059.94;5075495;28;20036;-45
2021/12/16 11:55:03;;;;;;;14.32;7.70;;;;;;;4.19;63.35;94063.94;5074132;28;20499;-42
2021/12/16 11:57:42;;;;;;;11.75;8.45;;;;;;;4.26;63.27;94062.72;5077088;28;20039;-43
2021/12/16 12:00:08;;;;;;;;;;;;;;;4.27;63.14;94064.19;5077932;28;20097;-44
2021/12/16 12:02:41;;;;;;;16.88;7.13;;;;;;;4.21;63.51;94057.97;5074535;28;19932;-42
2021/12/16 12:05:26;;;;;;;10.15;7.60;;;;;;;4.00;63.50;94060.16;5074759;28;20044;-43
2021/12/16 12:07:59;;;;;;;14.43;7.95;;;;;;;4.14;64.06;94055.69;5077445;28;20029;-43
2021/12/16 12:10:48;;;;;;;8.50;6.15;;;;;;;4.36;63.33;94059.25;5075045;28;20089;-42
2021/12/16 12:13:47;;;;;;;15.07;5.75;;;;;;;4.66;62.52;94053.34;5075993;28;20085;-44
2021/12/16 12:16:22;;;;;;;6.10;5.25;;;;;;;4.87;61.27;94051.88;5066543;28;20063;-45
2021/12/16 12:18:47;;;;;;;11.57;6.53;;;;;;;4.71;61.38;94047.88;5090701;28;20051;-44
2021/12/16 12:21:29;;;;;;;8.68;6.47;;;;;;;4.50;63.15;94049.34;5076194;28;20036;-44
2021/12/16 12:23:58;;;;;;;26.63;15.55;;;;;;;4.37;63.33;94046.34;5075685;28;20070;-46
2021/12/16 12:26:26;;;;;;;15.82;11.40;;;;;;;4.23;63.28;94058.22;5073009;28;20036;-42
2021/12/16 12:28:55;;;;;;;20.20;13.75;;;;;;;4.11;64.04;94060.19;5074545;28;20040;-46
2021/12/16 12:31:25;;;;;;;10.75;9.65;;;;;;;4.03;63.57;94061.16;5072649;28;20071;-48
2021/12/16 12:33:51;;;;;;;10.13;6.68;;;;;;;3.94;64.31;94053.91;5075372;28;20038;-38
2021/12/16 12:36:17;;;;;;;11.88;9.43;;;;;;;3.95;64.54;94057.38;5076552;28;20561;-41
2021/12/16 12:38:43;;;;;;;11.10;7.05;;;;;;;3.88;64.67;94060.59;5075746;28;20031;-41
2021/12/16 12:41:09;;;;;;;11.60;6.82;;;;;;;3.88;65.69;94055.13;5075527;28;20465;-41
2021/12/16 12:43:35;;;;;;;9.90;7.05;;;;;;;3.72;65.74;94060.03;5074589;28;20127;-40
2021/12/16 12:46:05;;;;;;;7.68;6.15;;;;;;;3.78;65.76;94057.31;5075355;28;20039;-40
2021/12/16 12:48:36;;;;;;;6.40;5.30;;;;;;;3.79;64.61;94065.00;5077690;28;20059;-45
2021/12/16 12:51:05;;;;;;;9.35;7.00;;;;;;;3.56;65.47;94051.75;5075139;28;20033;-42
2021/12/16 12:53:38;;;;;;;8.52;6.20;;;;;;;3.56;66.40;94054.47;5076596;28;20074;-40
2021/12/16 12:56:17;;;;;;;12.82;7.25;;;;;;;3.54;65.55;94049.50;5074777;28;20020;-40
2021/12/16 12:58:51;;;;;;;17.15;10.18;;;;;;;3.59;66.66;94050.78;5076632;28;20105;-41
2021/12/16 13:01:16;;;;;;;12.88;8.80;;;;;;;3.45;66.53;94046.97;5073698;28;20040;-39
2021/12/16 13:03:42;;;;;;;14.90;9.88;;;;;;;3.49;66.63;94047.50;5071237;28;20048;-39
2021/12/16 13:06:17;;;;;;;25.20;16.20;;;;;;;3.49;66.15;94047.50;5074312;28;20462;-39
2021/12/16 13:08:48;;;;;;;16.23;9.30;;;;;;;3.48;66.08;94045.25;5072049;28;20085;-39
2021/12/16 13:11:26;;;;;;;9.27;7.47;;;;;;;3.33;66.90;94025.56;5073587;28;20031;-39
2021/12/16 13:14:16;;;;;;;14.43;10.05;;;;;;;3.40;66.32;94044.22;5075030;28;20028;-39
2021/12/16 13:27:41;;;;;;;75.55;28.27;;;;;;;3.08;67.82;94036.09;5074046;28;19920;-39
2021/12/16 13:33:23;;;;;;;26.55;14.77;;;;;;;3.18;67.87;94033.94;5072624;28;20119;-41
2021/12/16 13:36:03;;;;;;;47.33;22.88;;;;;;;3.22;67.80;94033.69;5073360;28;20528;-41
2021/12/16 13:38:40;;;;;;;16.50;10.88;;;;;;;3.06;68.31;94035.81;5072313;28;20066;-40
2021/12/16 13:41:15;;;;;;;13.30;7.93;;;;;;;3.02;68.25;94038.03;5073542;28;20082;-39
2021/12/16 13:44:03;;;;;;;10.93;7.03;;;;;;;2.86;68.22;94033.19;5073647;28;20505;-39
2021/12/16 13:46:37;;;;;;;14.90;10.77;;;;;;;2.61;68.96;94019.63;5074262;28;20040;-40
2021/12/16 14:03:24;;;;;;;14.17;9.97;;;;;;;2.18;71.61;94041.28;5072941;28;20562;-39
2021/12/16 14:08:44;;;;;;;15.65;10.73;;;;;;;2.23;72.04;94043.31;5076174;28;20039;-40
2021/12/16 14:12:07;;;;;;;9.48;7.45;;;;;;;2.18;72.63;94043.25;5073603;28;20040;-40
2021/12/16 14:23:37;;;;;;;28.67;18.95;;;;;;;2.07;73.07;94054.78;5075310;28;20051;-35
2021/12/16 14:26:34;;;;;;;20.77;13.90;;;;;;;2.09;73.25;94065.94;5072012;28;20025;-35
2021/12/16 14:51:09;;;;;;;13.63;9.48;;;;;;;1.87;74.60;94070.38;5071778;28;20414;-36
2021/12/16 14:53:51;;;;;;;17.80;10.50;;;;;;;1.77;75.30;94069.78;5072675;28;20538;-36
2021/12/16 14:56:21;;;;;;;17.30;9.38;;;;;;;1.77;75.20;94071.75;5069662;28;20059;-36
2021/12/16 14:58:49;;;;;;;13.73;9.95;;;;;;;1.72;74.96;94072.44;5072736;28;20054;-36
2021/12/16 15:01:29;;;;;;;14.93;9.85;;;;;;;1.57;75.33;94063.59;5074326;28;20042;-37